地図

経路データ

SID SEASON NUMBER BASIN SUBBASIN NAME ISO_TIME NATURE LAT LON WMO_WIND WMO_PRES WMO_AGENCY TRACK_TYPE DIST2LAND LANDFALL IFLAG USA_AGENCY USA_ATCF_ID USA_LAT USA_LON USA_RECORD USA_STATUS USA_WIND USA_PRES USA_SSHS USA_R34_NE USA_R34_SE USA_R34_SW USA_R34_NW USA_R50_NE USA_R50_SE USA_R50_SW USA_R50_NW USA_R64_NE USA_R64_SE USA_R64_SW USA_R64_NW USA_POCI USA_ROCI USA_RMW USA_EYE TOKYO_LAT TOKYO_LON TOKYO_GRADE TOKYO_WIND TOKYO_PRES TOKYO_R50_DIR TOKYO_R50_LONG TOKYO_R50_SHORT TOKYO_R30_DIR TOKYO_R30_LONG TOKYO_R30_SHORT TOKYO_LAND CMA_LAT CMA_LON CMA_CAT CMA_WIND CMA_PRES HKO_LAT HKO_LON HKO_CAT HKO_WIND HKO_PRES NEWDELHI_LAT NEWDELHI_LON NEWDELHI_GRADE NEWDELHI_WIND NEWDELHI_PRES NEWDELHI_CI NEWDELHI_DP NEWDELHI_POCI REUNION_LAT REUNION_LON REUNION_TYPE REUNION_WIND REUNION_PRES REUNION_TNUM REUNION_CI REUNION_RMW REUNION_R34_NE REUNION_R34_SE REUNION_R34_SW REUNION_R34_NW REUNION_R50_NE REUNION_R50_SE REUNION_R50_SW REUNION_R50_NW REUNION_R64_NE REUNION_R64_SE REUNION_R64_SW REUNION_R64_NW BOM_LAT BOM_LON BOM_TYPE BOM_WIND BOM_PRES BOM_TNUM BOM_CI BOM_RMW BOM_R34_NE BOM_R34_SE BOM_R34_SW BOM_R34_NW BOM_R50_NE BOM_R50_SE BOM_R50_SW BOM_R50_NW BOM_R64_NE BOM_R64_SE BOM_R64_SW BOM_R64_NW BOM_ROCI BOM_POCI BOM_EYE BOM_POS_METHOD BOM_PRES_METHOD NADI_LAT NADI_LON NADI_CAT NADI_WIND NADI_PRES WELLINGTON_LAT WELLINGTON_LON WELLINGTON_WIND WELLINGTON_PRES DS824_LAT DS824_LON DS824_STAGE DS824_WIND DS824_PRES TD9636_LAT TD9636_LON TD9636_STAGE TD9636_WIND TD9636_PRES TD9635_LAT TD9635_LON TD9635_WIND TD9635_PRES TD9635_ROCI NEUMANN_LAT NEUMANN_LON NEUMANN_CLASS NEUMANN_WIND NEUMANN_PRES MLC_LAT MLC_LON MLC_CLASS MLC_WIND MLC_PRES USA_GUST BOM_GUST BOM_GUST_PER REUNION_GUST REUNION_GUST_PER USA_SEAHGT USA_SEARAD_NE USA_SEARAD_SE USA_SEARAD_SW USA_SEARAD_NW STORM_SPEED STORM_DIR
1984220N03145 1984 55 WP MM NOT_NAMED 1984-08-07 00:00:00 NR 2.50000 145.100 main 541 541 __________O___ -1 2.50000 145.100 0 14 318
1984220N03145 1984 55 WP MM NOT_NAMED 1984-08-07 03:00:00 NR 3.02534 144.633 main 613 613 __________P___ -1 3.02534 144.633 0 14 319
1984220N03145 1984 55 WP MM NOT_NAMED 1984-08-07 06:00:00 NR 3.55051 144.193 main 692 692 __________P___ -1 3.55051 144.193 0 13 322
1984220N03145 1984 55 WP MM NOT_NAMED 1984-08-07 09:00:00 NR 4.07539 143.806 main 761 761 __________P___ -1 4.07539 143.806 0 13 327
1984220N03145 1984 55 WP MM NOT_NAMED 1984-08-07 12:00:00 NR 4.60000 143.500 main 826 826 __________O___ -1 4.60000 143.500 0 12 333
1984220N03145 1984 55 WP MM NOT_NAMED 1984-08-07 15:00:00 NR 5.12136 143.284 main 886 886 __________P___ -1 5.12136 143.284 0 11 339
1984220N03145 1984 55 WP MM NOT_NAMED 1984-08-07 18:00:00 NR 5.62415 143.097 main 943 943 __________P___ -1 5.62415 143.097 0 11 337
1984220N03145 1984 55 WP MM NOT_NAMED 1984-08-07 21:00:00 NR 6.08989 142.862 main 991 989 __________P___ -1 6.08989 142.862 0 11 326
1984220N03145 1984 55 WP MM NOT_NAMED 1984-08-08 00:00:00 NR 6.50000 142.500 main 1021 1016 __________O___ -1 6.50000 142.500 0 12 308
1984220N03145 1984 55 WP MM NOT_NAMED 1984-08-08 03:00:00 NR 6.83304 141.895 main 1027 1024 __________P___ -1 6.83304 141.895 0 15 295
1984220N03145 1984 55 WP MM NOT_NAMED 1984-08-08 06:00:00 NR 7.11080 141.162 main 1030 1026 __________P___ -1 7.11080 141.162 0 16 289
1984220N03145 1984 55 WP MM NOT_NAMED 1984-08-08 09:00:00 NR 7.35805 140.373 main 1037 1025 __________P___ -1 7.35805 140.373 0 16 288
1984220N03145 1984 55 WP MM NOT_NAMED 1984-08-08 12:00:00 NR 7.60000 139.600 main 1027 1022 __________O___ -1 7.60000 139.600 0 15 291
1984220N03145 1984 55 WP MM NOT_NAMED 1984-08-08 15:00:00 NR 7.89027 138.987 main 1033 1030 __________P___ -1 7.89027 138.987 0 13 296
1984220N03145 1984 55 WP MM NOT_NAMED 1984-08-08 18:00:00 NR 8.17853 138.395 main 1044 1041 __________P___ -1 8.17853 138.395 0 13 295
1984220N03145 1984 55 WP MM NOT_NAMED 1984-08-08 21:00:00 NR 8.45260 137.780 main 1059 1054 __________P___ -1 8.45260 137.780 0 14 292
1984220N03145 1984 55 WP MM NOT_NAMED 1984-08-09 00:00:00 NR 8.70000 137.100 main 1066 1063 __________O___ -1 8.70000 137.100 0 15 286
1984220N03145 1984 55 WP MM NOT_NAMED 1984-08-09 03:00:00 NR 8.87957 136.292 main 1076 990 __________P___ -1 8.87957 136.292 0 17 281
1984220N03145 1984 55 WP MM NOT_NAMED 1984-08-09 06:00:00 NR 9.03525 135.416 main 979 896 __________P___ -1 9.03525 135.416 0 18 280
1984220N03145 1984 55 WP MM NOT_NAMED 1984-08-09 09:00:00 NR 9.19821 134.507 main 885 804 __________P___ -1 9.19821 134.507 0 18 282
1984220N03145 1984 55 WP MM NOT_NAMED 1984-08-09 12:00:00 NR 9.40000 133.600 main 793 693 O_________O___ jtwc_wp WP091984 9.40000 133.600 20 -1 9.40000 133.600 1 20 20 283
1984220N03145 1984 55 WP MM NOT_NAMED 1984-08-09 15:00:00 NR 9.62753 132.582 main 693 605 P_________P___ WP091984 9.63092 132.485 20 -1 9.62584 132.630 1 20 20 284
1984220N03145 1984 55 WP MM NOT_NAMED 1984-08-09 18:00:00 NR 9.90079 131.605 main 594 516 O_________P___ jtwc_wp WP091984 9.90000 131.500 20 -1 9.90139 131.683 1 20 19 289
1984220N03145 1984 55 WP MM NOT_NAMED 1984-08-09 21:00:00 NR 10.2491 130.795 main 516 469 P_________P___ WP091984 10.2472 130.745 20 -1 10.2510 130.845 1 20 16 300
1984220N03145 1984 55 WP MM NOT_NAMED 1984-08-10 00:00:00 NR 10.7000 130.200 main 469 437 O_________O___ jtwc_wp WP091984 10.7000 130.200 20 -1 10.7000 130.200 1 20 14 315
1984220N03145 1984 55 WP MM NOT_NAMED 1984-08-10 03:00:00 NR 11.2622 129.779 main 437 420 P_________P___ WP091984 11.2474 129.745 20 -1 11.2770 129.812 1 20 14 333
1984220N03145 1984 55 WP MM NOT_NAMED 1984-08-10 06:00:00 NR 11.9254 129.561 main 426 418 O_________P___ jtwc_wp WP091984 11.9000 129.500 20 -1 11.9509 129.622 1 20 14 350
1984220N03145 1984 55 WP MM NOT_NAMED 1984-08-10 09:00:00 NR 12.6509 129.523 main 438 438 P_________P___ WP091984 12.6274 129.475 20 -1 12.6744 129.571 1 20 17 14
1984220N03145 1984 55 WP MM NOT_NAMED 1984-08-10 12:00:00 TS 13.5778 129.978 main 512 512 O_O_______O___ jtwc_wp WP091984 13.4000 129.600 20 -1 15.0000 133.000 0 19 1004 13.4000 129.600 1 20 18 22
1984220N03145 1984 55 WP MM NOT_NAMED 1984-08-10 15:00:00 TS 14.3353 130.220 main 560 560 P_P_______P___ WP091984 14.1800 129.757 20 -1 15.1454 132.285 0 19 1004 14.0855 129.649 1 21 15 13
1984220N03145 1984 55 WP MM NOT_NAMED 1984-08-10 18:00:00 TS 14.9854 130.311 main 606 606 O_O_______P___ jtwc_wp WP091984 14.9000 129.900 20 -1 15.4000 131.600 0 19 1004 14.7599 129.755 1 22 12 2
1984220N03145 1984 55 WP MM NOT_NAMED 1984-08-10 21:00:00 TS 15.5706 130.262 main 643 634 P_P_______P___ WP091984 15.4799 129.945 22 -1 15.8274 130.983 0 19 1003 15.4043 129.859 1 23 11 350
1984220N03145 1984 55 WP MM NOT_NAMED 1984-08-11 00:00:00 TS 16.1000 130.100 main 660 658 O_O_______O___ jtwc_wp WP091984 16.0000 129.900 25 -1 16.3000 130.500 0 19 1003 16.0000 129.900 1 25 11 344
1984220N03145 1984 55 WP MM NOT_NAMED 1984-08-11 03:00:00 TS 16.6030 129.949 main 663 663 P_P_______P___ WP091984 16.5725 129.780 25 -1 16.6871 130.242 0 21 1003 16.5494 129.826 1 26 10 341
1984220N03145 1984 55 WP MM NOT_NAMED 1984-08-11 06:00:00 TS 17.0606 129.755 main 680 665 O_OO______P___ jtwc_wp WP091984 17.1000 129.600 25 -1 17.0000 130.000 1 23 1003 17.2000 129.700 TD 25 1002 17.0471 129.678 1 27 10 330
1984220N03145 1984 55 WP MM NOT_NAMED 1984-08-11 09:00:00 TS 17.4297 129.442 main 663 658 P_PP______P___ WP091984 17.5299 129.422 27 -1 17.2300 129.545 1 23 1003 17.4953 129.228 TD 25 1002 17.4963 129.466 1 28 10 316
1984220N03145 1984 55 WP MM NOT_NAMED 1984-08-11 12:00:00 TS 17.7467 129.067 main 658 649 O_OO______O___ jtwc_wp WP091984 17.9000 129.200 30 -1 17.4000 129.000 1 23 1003 17.8000 128.800 TD 25 1002 17.9000 129.200 1 30 10 311
1984220N03145 1984 55 WP MM NOT_NAMED 1984-08-11 15:00:00 TS 18.0593 128.689 main 657 631 P_PP______P___ WP091984 18.2649 128.930 30 -1 17.5649 128.457 1 23 1002 18.1273 128.442 TD 25 1002 18.2800 128.928 1 30 10 310
1984220N03145 1984 55 WP MM NOT_NAMED 1984-08-11 18:00:00 TS 18.3542 128.301 main 633 590 O_OO______P___ jtwc_wp WP091984 18.6000 128.600 30 -1 17.7000 127.900 1 23 1002 18.5000 128.100 TD 25 1002 18.6170 128.604 1 30 10 307
1984220N03145 1984 55 WP MM NOT_NAMED 1984-08-11 21:00:00 TS 18.6444 127.875 main 590 550 P_PP______P___ WP091984 18.9150 128.215 30 -1 17.7999 127.342 1 23 1001 18.9424 127.715 TD 25 1002 18.9205 128.228 1 30 10 305
1984220N03145 1984 55 WP MM NOT_NAMED 1984-08-12 00:00:00 TS 18.9250 127.425 main 540 502 O_OO______O___ jtwc_wp WP091984 19.2000 127.800 30 -1 17.9000 126.800 1 23 1000 19.4000 127.300 TD 25 1002 19.2000 127.800 1 30 10 303
1984220N03145 1984 55 WP MM NOT_NAMED 1984-08-12 03:00:00 TS 19.1941 126.982 main 502 458 P_PP______P___ WP091984 19.4571 127.437 30 -1 18.0124 126.277 1 23 1000 19.8074 126.865 TD 25 1001 19.4996 127.350 1 30 10 302
1984220N03145 1984 55 WP MM NOT_NAMED 1984-08-12 06:00:00 TS 19.4686 126.512 main 458 419 O_OO______P___ jtwc_wp WP091984 19.7000 127.000 30 -1 18.2000 125.800 1 23 1000 20.2000 126.400 TD 25 1000 19.7743 126.848 1 30 11 302
1984220N03145 1984 55 WP MM NOT_NAMED 1984-08-12 09:00:00 TS 19.7723 125.998 main 419 380 P_PP______P___ WP091984 19.9652 126.380 30 -1 18.5123 125.392 1 23 1000 20.5998 125.922 TD 25 1000 20.0118 126.297 1 30 12 301
1984220N03145 1984 55 WP MM NOT_NAMED 1984-08-12 12:00:00 TS 20.0750 125.450 main 386 352 O_OO______O___ jtwc_wp WP091984 20.2000 125.700 30 -1 18.9000 125.000 1 23 1000 21.0000 125.400 TD 25 1000 20.2000 125.700 1 30 12 300
1984220N03145 1984 55 WP MM NOT_NAMED 1984-08-12 15:00:00 TS 20.3678 124.897 main 352 323 P_PP______P___ WP091984 20.3870 125.115 30 -1 19.3073 124.572 1 23 999 21.4074 124.822 TD 27 999 20.3697 125.077 1 30 12 297
1984220N03145 1984 55 WP MM NOT_NAMED 1984-08-12 18:00:00 TS 20.6211 124.303 main 323 305 O_OO______P___ jtwc_wp WP091984 20.5000 124.500 30 -1 19.7000 124.100 1 23 999 21.8000 124.200 TD 30 998 20.4845 124.411 1 30 13 292
1984220N03145 1984 55 WP MM NOT_NAMED 1984-08-12 21:00:00 TS 20.8273 123.651 main 305 235 P_PP______P___ WP091984 20.5450 123.765 30 -1 20.0445 123.602 1 23 998 22.1877 123.520 TD 30 997 20.5320 123.715 1 30 13 281
1984220N03145 1984 55 WP MM NOT_NAMED 1984-08-13 00:00:00 TS 20.8750 122.900 main 235 182 O_OO______O___ jtwc_wp WP091984 20.5000 123.000 30 -1 20.3000 123.000 1 23 997 22.5000 122.900 TD 30 996 20.5000 123.000 1 30 14 269
1984220N03145 1984 55 WP MM NOT_NAMED 1984-08-13 03:00:00 TS 20.8116 122.176 main 182 152 P_PP______P___ WP091984 20.3870 122.300 30 -1 20.4837 122.110 1 23 996 22.6874 122.447 TD 30 996 20.3821 122.278 1 30 13 261
1984220N03145 1984 55 WP MM NOT_NAMED 1984-08-13 06:00:00 TS 20.6723 121.550 main 152 147 O_OO______P___ jtwc_wp WP091984 20.2000 121.600 30 -1 20.5000 121.400 1 23 996 22.8000 122.100 TD 30 996 20.1947 121.552 1 30 10 248
1984220N03145 1984 55 WP MM NOT_NAMED 1984-08-13 09:00:00 TS 20.4162 121.142 main 169 168 P_P_______P___ WP091984 19.9950 120.835 30 -1 20.1819 121.293 1 23 996 TD 19.9599 120.826 1 30 6 237
1984220N03145 1984 55 WP MM NOT_NAMED 1984-08-13 12:00:00 TS 20.3333 121.000 main 179 157 O_O_______O___ jtwc_wp WP091984 19.7000 120.100 30 -1 20.0000 121.500 1 23 996 19.7000 120.100 1 30 1 4
1984220N03145 1984 55 WP MM NOT_NAMED 1984-08-13 15:00:00 TS 20.5639 121.156 main 148 119 P_P___________ WP091984 19.2851 119.467 27 -1 20.4672 121.883 1 23 996 1 6 22
1984220N03145 1984 55 WP MM NOT_NAMED 1984-08-13 18:00:00 TS 20.9333 121.256 main 119 70 O_O___________ jtwc_wp WP091984 18.8000 118.900 25 -1 21.1000 122.000 1 23 996 1 8 354
1984220N03145 1984 55 WP MM NOT_NAMED 1984-08-13 21:00:00 TS 21.3510 121.070 main 59 44 __P___________ WP091984 -1 21.4320 121.226 1 21 996 1 9 309
1984220N03145 1984 55 WP MM NOT_NAMED 1984-08-14 00:00:00 TS 21.5000 120.500 main 49 45 __O___________ -1 21.7000 120.300 0 19 996 9 297
1984220N03145 1984 55 WP MM NOT_NAMED 1984-08-14 03:00:00 TS 21.7596 120.197 main 52 52 __P___________ -1 22.0567 119.945 0 19 996 7 319
1984220N03145 1984 55 WP MM NOT_NAMED 1984-08-14 06:00:00 TS 22.0000 120.029 main 63 53 __O___________ -1 22.4000 119.800 0 19 996 5 325
1984220N03145 1984 55 WP MM NOT_NAMED 1984-08-14 09:00:00 TS 22.1809 119.872 main 53 53 __P___________ -1 22.6728 119.660 0 18 996 5 323
1984220N03145 1984 55 WP MM NOT_NAMED 1984-08-14 12:00:00 TS 22.3750 119.725 main 62 61 __O___________ -1 22.9000 119.500 0 17 997 4 330
1984220N03145 1984 55 WP MM NOT_NAMED 1984-08-14 15:00:00 NR 22.4925 119.683 main 61 55 ______________ -1 0 4 345
1984220N03145 1984 55 WP MM NOT_NAMED 1984-08-14 18:00:00 NR 22.8000 119.600 main 61 ______________ -1 6 346

デジタル台風データ・検索

IBTrACS Databaseについて

本データベースは、米国NOAAが公開する1842年以降の世界の熱帯低気圧のベストトラックデータアーカイブInternational Best Track Archive for Climate Stewardship (IBTrACS)を、ウェブで閲覧しやすい形式に変換したものです。

最終更新日:2021-11-26